sensor_id;sensor_type;location;lat;lon;timestamp;P1;durP1;ratioP1;P2;durP2;ratioP2
1262;SDS011;62267;50.112;8.704;2022-08-21T00:01:13;9.63;;;7.10;;
1262;SDS011;62267;50.112;8.704;2022-08-21T00:04:03;8.73;;;7.13;;
1262;SDS011;62267;50.112;8.704;2022-08-21T00:06:50;9.83;;;8.60;;
1262;SDS011;62267;50.112;8.704;2022-08-21T00:09:36;9.70;;;8.70;;
1262;SDS011;62267;50.112;8.704;2022-08-21T00:12:22;8.37;;;7.57;;
1262;SDS011;62267;50.112;8.704;2022-08-21T00:15:09;7.70;;;7.00;;
1262;SDS011;62267;50.112;8.704;2022-08-21T00:17:56;11.47;;;8.20;;
1262;SDS011;62267;50.112;8.704;2022-08-21T00:20:42;8.23;;;7.47;;
1262;SDS011;62267;50.112;8.704;2022-08-21T00:23:28;10.77;;;9.37;;
1262;SDS011;62267;50.112;8.704;2022-08-21T00:26:14;9.77;;;8.77;;
1262;SDS011;62267;50.112;8.704;2022-08-21T00:29:00;8.20;;;7.40;;
1262;SDS011;62267;50.112;8.704;2022-08-21T00:31:46;8.50;;;7.70;;
1262;SDS011;62267;50.112;8.704;2022-08-21T00:34:32;8.97;;;8.07;;
1262;SDS011;62267;50.112;8.704;2022-08-21T00:37:18;8.73;;;7.97;;
1262;SDS011;62267;50.112;8.704;2022-08-21T00:40:05;9.73;;;8.13;;
1262;SDS011;62267;50.112;8.704;2022-08-21T00:42:51;8.83;;;8.03;;
1262;SDS011;62267;50.112;8.704;2022-08-21T00:45:38;9.23;;;8.33;;
1262;SDS011;62267;50.112;8.704;2022-08-21T00:48:24;8.50;;;7.43;;
1262;SDS011;62267;50.112;8.704;2022-08-21T00:51:16;8.33;;;7.63;;
1262;SDS011;62267;50.112;8.704;2022-08-21T00:54:07;8.70;;;7.70;;
1262;SDS011;62267;50.112;8.704;2022-08-21T00:57:05;10.10;;;8.97;;
1262;SDS011;62267;50.112;8.704;2022-08-21T00:59:53;8.03;;;7.43;;
1262;SDS011;62267;50.112;8.704;2022-08-21T01:02:39;9.57;;;8.57;;
1262;SDS011;62267;50.112;8.704;2022-08-21T01:05:26;8.80;;;7.93;;
1262;SDS011;62267;50.112;8.704;2022-08-21T01:08:12;8.23;;;7.53;;
1262;SDS011;62267;50.112;8.704;2022-08-21T01:10:58;8.93;;;8.03;;
1262;SDS011;62267;50.112;8.704;2022-08-21T01:13:47;8.90;;;8.00;;
1262;SDS011;62267;50.112;8.704;2022-08-21T01:16:33;9.30;;;8.40;;
1262;SDS011;62267;50.112;8.704;2022-08-21T01:19:20;9.50;;;8.60;;
1262;SDS011;62267;50.112;8.704;2022-08-21T01:22:07;9.10;;;8.30;;
1262;SDS011;62267;50.112;8.704;2022-08-21T01:24:52;9.83;;;8.83;;
1262;SDS011;62267;50.112;8.704;2022-08-21T01:27:38;9.00;;;8.10;;
1262;SDS011;62267;50.112;8.704;2022-08-21T01:30:25;11.53;;;8.17;;
1262;SDS011;62267;50.112;8.704;2022-08-21T01:33:11;10.23;;;9.23;;
1262;SDS011;62267;50.112;8.704;2022-08-21T01:35:57;8.77;;;8.00;;
1262;SDS011;62267;50.112;8.704;2022-08-21T01:38:43;10.60;;;8.87;;
1262;SDS011;62267;50.112;8.704;2022-08-21T01:41:28;10.57;;;8.83;;
1262;SDS011;62267;50.112;8.704;2022-08-21T01:44:14;9.23;;;8.33;;
1262;SDS011;62267;50.112;8.704;2022-08-21T01:47:01;11.47;;;8.87;;
1262;SDS011;62267;50.112;8.704;2022-08-21T01:49:48;9.23;;;8.33;;
1262;SDS011;62267;50.112;8.704;2022-08-21T01:52:34;8.80;;;7.70;;
1262;SDS011;62267;50.112;8.704;2022-08-21T01:55:21;9.50;;;8.53;;
1262;SDS011;62267;50.112;8.704;2022-08-21T01:58:07;8.50;;;7.70;;
1262;SDS011;62267;50.112;8.704;2022-08-21T02:00:53;8.10;;;7.40;;
1262;SDS011;62267;50.112;8.704;2022-08-21T02:03:39;9.27;;;8.37;;
1262;SDS011;62267;50.112;8.704;2022-08-21T02:06:26;11.03;;;8.93;;
1262;SDS011;62267;50.112;8.704;2022-08-21T02:09:12;9.83;;;8.60;;
1262;SDS011;62267;50.112;8.704;2022-08-21T02:11:58;10.10;;;8.50;;
1262;SDS011;62267;50.112;8.704;2022-08-21T02:14:44;12.13;;;10.83;;
1262;SDS011;62267;50.112;8.704;2022-08-21T02:17:44;9.60;;;8.60;;
1262;SDS011;62267;50.112;8.704;2022-08-21T02:20:38;9.63;;;8.70;;
1262;SDS011;62267;50.112;8.704;2022-08-21T02:23:24;9.00;;;8.07;;
1262;SDS011;62267;50.112;8.704;2022-08-21T02:26:11;9.20;;;8.17;;
1262;SDS011;62267;50.112;8.704;2022-08-21T02:28:58;9.57;;;8.37;;
1262;SDS011;62267;50.112;8.704;2022-08-21T02:31:44;14.53;;;10.47;;
1262;SDS011;62267;50.112;8.704;2022-08-21T02:34:30;10.27;;;8.40;;
1262;SDS011;62267;50.112;8.704;2022-08-21T02:37:16;13.27;;;9.07;;
1262;SDS011;62267;50.112;8.704;2022-08-21T02:40:02;10.27;;;9.20;;
1262;SDS011;62267;50.112;8.704;2022-08-21T02:42:48;10.77;;;9.40;;
1262;SDS011;62267;50.112;8.704;2022-08-21T02:45:37;12.63;;;10.70;;
1262;SDS011;62267;50.112;8.704;2022-08-21T02:48:24;10.87;;;9.80;;
1262;SDS011;62267;50.112;8.704;2022-08-21T02:51:11;11.30;;;9.43;;
1262;SDS011;62267;50.112;8.704;2022-08-21T02:53:57;11.43;;;9.67;;
1262;SDS011;62267;50.112;8.704;2022-08-21T02:56:42;9.23;;;8.43;;
1262;SDS011;62267;50.112;8.704;2022-08-21T02:59:29;9.17;;;8.30;;
1262;SDS011;62267;50.112;8.704;2022-08-21T03:02:14;11.33;;;8.90;;
1262;SDS011;62267;50.112;8.704;2022-08-21T03:05:01;8.70;;;8.00;;
1262;SDS011;62267;50.112;8.704;2022-08-21T03:07:47;9.73;;;8.70;;
1262;SDS011;62267;50.112;8.704;2022-08-21T03:10:33;9.73;;;8.83;;
1262;SDS011;62267;50.112;8.704;2022-08-21T03:13:19;9.33;;;8.17;;
1262;SDS011;62267;50.112;8.704;2022-08-21T03:16:05;9.23;;;8.43;;
1262;SDS011;62267;50.112;8.704;2022-08-21T03:18:54;8.80;;;8.00;;
1262;SDS011;62267;50.112;8.704;2022-08-21T03:21:39;9.37;;;8.40;;
1262;SDS011;62267;50.112;8.704;2022-08-21T03:24:25;9.17;;;8.27;;
1262;SDS011;62267;50.112;8.704;2022-08-21T03:27:11;9.40;;;8.50;;
1262;SDS011;62267;50.112;8.704;2022-08-21T03:29:58;9.43;;;8.43;;
1262;SDS011;62267;50.112;8.704;2022-08-21T03:32:43;11.37;;;9.37;;
1262;SDS011;62267;50.112;8.704;2022-08-21T03:35:30;8.90;;;8.00;;
1262;SDS011;62267;50.112;8.704;2022-08-21T03:38:16;9.80;;;7.83;;
1262;SDS011;62267;50.112;8.704;2022-08-21T03:41:10;13.60;;;8.60;;
1262;SDS011;62267;50.112;8.704;2022-08-21T03:43:55;9.00;;;8.10;;
1262;SDS011;62267;50.112;8.704;2022-08-21T03:46:41;10.00;;;8.00;;
1262;SDS011;62267;50.112;8.704;2022-08-21T03:49:27;8.40;;;7.70;;
1262;SDS011;62267;50.112;8.704;2022-08-21T03:52:13;9.70;;;7.67;;
1262;SDS011;62267;50.112;8.704;2022-08-21T03:54:58;9.67;;;8.20;;
1262;SDS011;62267;50.112;8.704;2022-08-21T03:57:44;9.27;;;8.33;;
1262;SDS011;62267;50.112;8.704;2022-08-21T04:00:29;10.73;;;9.20;;
1262;SDS011;62267;50.112;8.704;2022-08-21T04:03:16;8.27;;;7.47;;
1262;SDS011;62267;50.112;8.704;2022-08-21T04:06:02;8.63;;;7.83;;
1262;SDS011;62267;50.112;8.704;2022-08-21T04:08:48;9.80;;;8.87;;
1262;SDS011;62267;50.112;8.704;2022-08-21T04:11:34;10.73;;;7.70;;
1262;SDS011;62267;50.112;8.704;2022-08-21T04:14:20;9.00;;;7.10;;
1262;SDS011;62267;50.112;8.704;2022-08-21T04:17:06;8.60;;;7.80;;
1262;SDS011;62267;50.112;8.704;2022-08-21T04:19:52;9.00;;;8.10;;
1262;SDS011;62267;50.112;8.704;2022-08-21T04:22:39;10.00;;;9.00;;
1262;SDS011;62267;50.112;8.704;2022-08-21T04:25:24;12.80;;;9.60;;
1262;SDS011;62267;50.112;8.704;2022-08-21T04:28:10;9.43;;;8.30;;
1262;SDS011;62267;50.112;8.704;2022-08-21T04:30:57;11.50;;;9.87;;
1262;SDS011;62267;50.112;8.704;2022-08-21T04:33:43;11.53;;;9.00;;
1262;SDS011;62267;50.112;8.704;2022-08-21T04:36:29;10.13;;;9.10;;
1262;SDS011;62267;50.112;8.704;2022-08-21T04:39:15;9.03;;;8.10;;
1262;SDS011;62267;50.112;8.704;2022-08-21T04:42:01;11.23;;;8.50;;
1262;SDS011;62267;50.112;8.704;2022-08-21T04:44:47;8.10;;;7.30;;
1262;SDS011;62267;50.112;8.704;2022-08-21T04:47:33;10.00;;;7.90;;
1262;SDS011;62267;50.112;8.704;2022-08-21T04:54:24;10.50;;;9.40;;
1262;SDS011;62267;50.112;8.704;2022-08-21T04:56:40;9.87;;;8.87;;
1262;SDS011;62267;50.112;8.704;2022-08-21T04:59:28;7.93;;;7.23;;
1262;SDS011;62267;50.112;8.704;2022-08-21T05:02:15;9.57;;;8.50;;
1262;SDS011;62267;50.112;8.704;2022-08-21T05:05:01;9.70;;;8.67;;
1262;SDS011;62267;50.112;8.704;2022-08-21T05:07:47;9.73;;;8.80;;
1262;SDS011;62267;50.112;8.704;2022-08-21T05:10:33;8.50;;;7.63;;
1262;SDS011;62267;50.112;8.704;2022-08-21T05:13:19;9.80;;;8.80;;
1262;SDS011;62267;50.112;8.704;2022-08-21T05:16:05;9.00;;;7.93;;
1262;SDS011;62267;50.112;8.704;2022-08-21T05:18:51;8.60;;;7.70;;
1262;SDS011;62267;50.112;8.704;2022-08-21T05:21:38;8.90;;;8.10;;
1262;SDS011;62267;50.112;8.704;2022-08-21T05:24:24;9.43;;;8.57;;
1262;SDS011;62267;50.112;8.704;2022-08-21T05:27:10;8.60;;;7.80;;
1262;SDS011;62267;50.112;8.704;2022-08-21T05:30:02;9.13;;;8.00;;
1262;SDS011;62267;50.112;8.704;2022-08-21T05:32:48;9.43;;;8.63;;
1262;SDS011;62267;50.112;8.704;2022-08-21T05:35:34;11.17;;;8.60;;
1262;SDS011;62267;50.112;8.704;2022-08-21T05:38:19;10.43;;;8.80;;
1262;SDS011;62267;50.112;8.704;2022-08-21T05:41:05;9.90;;;8.87;;
1262;SDS011;62267;50.112;8.704;2022-08-21T05:43:52;9.50;;;7.90;;
1262;SDS011;62267;50.112;8.704;2022-08-21T05:46:38;10.23;;;9.03;;
1262;SDS011;62267;50.112;8.704;2022-08-21T05:49:23;10.90;;;9.30;;
1262;SDS011;62267;50.112;8.704;2022-08-21T05:52:09;12.93;;;9.27;;
1262;SDS011;62267;50.112;8.704;2022-08-21T05:54:55;9.30;;;8.40;;
1262;SDS011;62267;50.112;8.704;2022-08-21T05:57:40;9.10;;;8.20;;
1262;SDS011;62267;50.112;8.704;2022-08-21T06:00:26;11.00;;;9.90;;
1262;SDS011;62267;50.112;8.704;2022-08-21T06:03:16;11.83;;;10.30;;
1262;SDS011;62267;50.112;8.704;2022-08-21T06:06:03;11.30;;;10.20;;
1262;SDS011;62267;50.112;8.704;2022-08-21T06:08:49;12.50;;;11.30;;
1262;SDS011;62267;50.112;8.704;2022-08-21T06:11:35;12.13;;;10.00;;
1262;SDS011;62267;50.112;8.704;2022-08-21T06:14:20;14.43;;;10.90;;
1262;SDS011;62267;50.112;8.704;2022-08-21T06:17:07;15.90;;;11.23;;
1262;SDS011;62267;50.112;8.704;2022-08-21T06:19:53;13.93;;;11.43;;
1262;SDS011;62267;50.112;8.704;2022-08-21T06:22:38;12.00;;;10.83;;
1262;SDS011;62267;50.112;8.704;2022-08-21T06:25:26;13.53;;;12.10;;
1262;SDS011;62267;50.112;8.704;2022-08-21T06:28:12;11.50;;;10.40;;
1262;SDS011;62267;50.112;8.704;2022-08-21T06:30:58;14.10;;;11.20;;
1262;SDS011;62267;50.112;8.704;2022-08-21T06:33:44;12.60;;;11.40;;
1262;SDS011;62267;50.112;8.704;2022-08-21T06:36:30;12.87;;;11.67;;
1262;SDS011;62267;50.112;8.704;2022-08-21T06:39:15;13.07;;;10.83;;
1262;SDS011;62267;50.112;8.704;2022-08-21T06:42:14;12.63;;;11.33;;
1262;SDS011;62267;50.112;8.704;2022-08-21T06:45:02;13.90;;;10.93;;
1262;SDS011;62267;50.112;8.704;2022-08-21T06:47:47;12.47;;;11.00;;
1262;SDS011;62267;50.112;8.704;2022-08-21T06:50:33;12.70;;;11.30;;
1262;SDS011;62267;50.112;8.704;2022-08-21T06:53:19;13.83;;;9.93;;
1262;SDS011;62267;50.112;8.704;2022-08-21T06:56:06;11.27;;;10.17;;
1262;SDS011;62267;50.112;8.704;2022-08-21T06:58:51;13.13;;;11.10;;
1262;SDS011;62267;50.112;8.704;2022-08-21T07:01:37;11.63;;;10.43;;
1262;SDS011;62267;50.112;8.704;2022-08-21T07:04:24;12.67;;;11.47;;
1262;SDS011;62267;50.112;8.704;2022-08-21T07:07:10;10.77;;;9.77;;
1262;SDS011;62267;50.112;8.704;2022-08-21T07:09:56;11.83;;;10.57;;
1262;SDS011;62267;50.112;8.704;2022-08-21T07:12:42;10.30;;;9.40;;
1262;SDS011;62267;50.112;8.704;2022-08-21T07:15:28;17.80;;;11.37;;
1262;SDS011;62267;50.112;8.704;2022-08-21T07:18:14;11.67;;;10.47;;
1262;SDS011;62267;50.112;8.704;2022-08-21T07:21:00;14.53;;;11.20;;
1262;SDS011;62267;50.112;8.704;2022-08-21T07:23:49;11.40;;;10.30;;
1262;SDS011;62267;50.112;8.704;2022-08-21T07:26:35;11.50;;;10.37;;
1262;SDS011;62267;50.112;8.704;2022-08-21T07:29:21;11.90;;;10.80;;
1262;SDS011;62267;50.112;8.704;2022-08-21T07:32:06;10.43;;;9.47;;
1262;SDS011;62267;50.112;8.704;2022-08-21T07:34:52;11.10;;;10.00;;
1262;SDS011;62267;50.112;8.704;2022-08-21T07:37:38;13.00;;;11.63;;
1262;SDS011;62267;50.112;8.704;2022-08-21T07:40:24;11.00;;;8.97;;
1262;SDS011;62267;50.112;8.704;2022-08-21T07:43:10;13.60;;;11.73;;
1262;SDS011;62267;50.112;8.704;2022-08-21T07:45:56;11.00;;;10.00;;
1262;SDS011;62267;50.112;8.704;2022-08-21T07:48:42;11.77;;;10.20;;
1262;SDS011;62267;50.112;8.704;2022-08-21T07:51:28;11.43;;;10.10;;
1262;SDS011;62267;50.112;8.704;2022-08-21T07:54:14;11.77;;;10.60;;
1262;SDS011;62267;50.112;8.704;2022-08-21T07:57:01;12.20;;;11.00;;
1262;SDS011;62267;50.112;8.704;2022-08-21T07:59:47;11.60;;;10.57;;
1262;SDS011;62267;50.112;8.704;2022-08-21T08:02:32;10.83;;;9.77;;
1262;SDS011;62267;50.112;8.704;2022-08-21T08:05:19;12.30;;;11.10;;
1262;SDS011;62267;50.112;8.704;2022-08-21T08:08:06;13.60;;;12.17;;
1262;SDS011;62267;50.112;8.704;2022-08-21T08:10:52;10.17;;;9.20;;
1262;SDS011;62267;50.112;8.704;2022-08-21T08:13:39;12.07;;;9.73;;
1262;SDS011;62267;50.112;8.704;2022-08-21T08:16:25;14.00;;;11.27;;
1262;SDS011;62267;50.112;8.704;2022-08-21T08:19:11;11.30;;;10.10;;
1262;SDS011;62267;50.112;8.704;2022-08-21T08:21:57;12.60;;;10.60;;
1262;SDS011;62267;50.112;8.704;2022-08-21T08:24:43;11.87;;;10.67;;
1262;SDS011;62267;50.112;8.704;2022-08-21T08:27:29;11.87;;;10.67;;
1262;SDS011;62267;50.112;8.704;2022-08-21T08:30:15;12.93;;;10.80;;
1262;SDS011;62267;50.112;8.704;2022-08-21T08:33:03;14.37;;;12.37;;
1262;SDS011;62267;50.112;8.704;2022-08-21T08:35:49;15.33;;;11.00;;
1262;SDS011;62267;50.112;8.704;2022-08-21T08:38:35;14.70;;;13.10;;
1262;SDS011;62267;50.112;8.704;2022-08-21T08:41:21;13.37;;;12.00;;
1262;SDS011;62267;50.112;8.704;2022-08-21T08:44:14;14.03;;;10.57;;
1262;SDS011;62267;50.112;8.704;2022-08-21T08:47:00;16.13;;;10.80;;
1262;SDS011;62267;50.112;8.704;2022-08-21T08:50:11;11.80;;;10.60;;
1262;SDS011;62267;50.112;8.704;2022-08-21T08:52:57;13.97;;;12.57;;
1262;SDS011;62267;50.112;8.704;2022-08-21T08:55:44;11.40;;;9.77;;
1262;SDS011;62267;50.112;8.704;2022-08-21T08:58:32;13.10;;;11.80;;
1262;SDS011;62267;50.112;8.704;2022-08-21T09:01:18;11.27;;;9.87;;
1262;SDS011;62267;50.112;8.704;2022-08-21T09:04:05;11.60;;;10.40;;
1262;SDS011;62267;50.112;8.704;2022-08-21T09:09:56;10.43;;;9.33;;
1262;SDS011;62267;50.112;8.704;2022-08-21T09:12:56;9.63;;;8.50;;
1262;SDS011;62267;50.112;8.704;2022-08-21T09:22:23;6.63;;;5.97;;
1262;SDS011;62267;50.112;8.704;2022-08-21T09:25:01;7.50;;;5.63;;
1262;SDS011;62267;50.112;8.704;2022-08-21T09:27:52;10.77;;;6.10;;
1262;SDS011;62267;50.112;8.704;2022-08-21T09:30:42;9.17;;;5.80;;
1262;SDS011;62267;50.112;8.704;2022-08-21T09:33:29;7.77;;;5.97;;
1262;SDS011;62267;50.112;8.704;2022-08-21T09:36:25;9.33;;;7.20;;
1262;SDS011;62267;50.112;8.704;2022-08-21T09:39:22;6.97;;;5.80;;
1262;SDS011;62267;50.112;8.704;2022-08-21T09:42:09;8.83;;;6.03;;
1262;SDS011;62267;50.112;8.704;2022-08-21T09:45:06;7.83;;;6.30;;
1262;SDS011;62267;50.112;8.704;2022-08-21T09:47:52;6.30;;;5.70;;
1262;SDS011;62267;50.112;8.704;2022-08-21T09:50:39;8.80;;;6.83;;
1262;SDS011;62267;50.112;8.704;2022-08-21T09:53:28;8.40;;;6.50;;
1262;SDS011;62267;50.112;8.704;2022-08-21T09:56:30;7.80;;;6.90;;
1262;SDS011;62267;50.112;8.704;2022-08-21T09:59:35;8.13;;;7.13;;
1262;SDS011;62267;50.112;8.704;2022-08-21T10:02:29;7.63;;;6.83;;
1262;SDS011;62267;50.112;8.704;2022-08-21T10:05:21;8.90;;;6.43;;
1262;SDS011;62267;50.112;8.704;2022-08-21T10:08:16;7.27;;;6.53;;
1262;SDS011;62267;50.112;8.704;2022-08-21T10:11:04;6.87;;;5.87;;
1262;SDS011;62267;50.112;8.704;2022-08-21T10:16:59;7.30;;;6.53;;
1262;SDS011;62267;50.112;8.704;2022-08-21T10:19:57;7.27;;;6.57;;
1262;SDS011;62267;50.112;8.704;2022-08-21T10:25:52;8.23;;;7.43;;
1262;SDS011;62267;50.112;8.704;2022-08-21T10:32:01;8.80;;;6.30;;
1262;SDS011;62267;50.112;8.704;2022-08-21T10:35:08;6.83;;;6.13;;
1262;SDS011;62267;50.112;8.704;2022-08-21T10:44:35;11.47;;;7.40;;
1262;SDS011;62267;50.112;8.704;2022-08-21T10:47:38;8.33;;;6.93;;
1262;SDS011;62267;50.112;8.704;2022-08-21T10:50:29;6.80;;;6.20;;
1262;SDS011;62267;50.112;8.704;2022-08-21T10:53:22;8.87;;;6.50;;
1262;SDS011;62267;50.112;8.704;2022-08-21T10:56:15;10.00;;;6.60;;
1262;SDS011;62267;50.112;8.704;2022-08-21T11:07:39;7.97;;;6.80;;
1262;SDS011;62267;50.112;8.704;2022-08-21T11:10:37;8.53;;;6.60;;
1262;SDS011;62267;50.112;8.704;2022-08-21T11:13:44;7.40;;;6.20;;
1262;SDS011;62267;50.112;8.704;2022-08-21T11:19:50;5.77;;;5.20;;
1262;SDS011;62267;50.112;8.704;2022-08-21T11:22:39;7.57;;;6.87;;
1262;SDS011;62267;50.112;8.704;2022-08-21T11:25:36;6.00;;;5.43;;
1262;SDS011;62267;50.112;8.704;2022-08-21T11:28:26;7.07;;;6.43;;
1262;SDS011;62267;50.112;8.704;2022-08-21T11:31:21;6.37;;;5.83;;
1262;SDS011;62267;50.112;8.704;2022-08-21T11:37:23;6.53;;;5.30;;
1262;SDS011;62267;50.112;8.704;2022-08-21T11:52:03;5.33;;;4.90;;
1262;SDS011;62267;50.112;8.704;2022-08-21T11:54:57;5.50;;;5.10;;
1262;SDS011;62267;50.112;8.704;2022-08-21T12:00:47;6.43;;;5.27;;
1262;SDS011;62267;50.112;8.704;2022-08-21T12:03:35;6.67;;;5.97;;
1262;SDS011;62267;50.112;8.704;2022-08-21T12:06:30;6.50;;;5.87;;
1262;SDS011;62267;50.112;8.704;2022-08-21T12:09:31;6.13;;;5.53;;
1262;SDS011;62267;50.112;8.704;2022-08-21T12:12:23;6.07;;;5.40;;
1262;SDS011;62267;50.112;8.704;2022-08-21T12:18:03;6.90;;;6.30;;
1262;SDS011;62267;50.112;8.704;2022-08-21T12:24:01;5.43;;;4.80;;
1262;SDS011;62267;50.112;8.704;2022-08-21T12:29:35;5.33;;;4.83;;
1262;SDS011;62267;50.112;8.704;2022-08-21T12:32:24;7.40;;;5.47;;
1262;SDS011;62267;50.112;8.704;2022-08-21T12:35:18;6.20;;;5.60;;
1262;SDS011;62267;50.112;8.704;2022-08-21T12:38:14;6.60;;;5.33;;
1262;SDS011;62267;50.112;8.704;2022-08-21T12:41:05;6.07;;;5.57;;
1262;SDS011;62267;50.112;8.704;2022-08-21T12:43:55;6.33;;;5.53;;
1262;SDS011;62267;50.112;8.704;2022-08-21T12:46:55;5.93;;;5.23;;
1262;SDS011;62267;50.112;8.704;2022-08-21T12:49:51;5.87;;;5.20;;
1262;SDS011;62267;50.112;8.704;2022-08-21T12:52:42;7.17;;;6.47;;
1262;SDS011;62267;50.112;8.704;2022-08-21T12:55:31;10.90;;;6.20;;
1262;SDS011;62267;50.112;8.704;2022-08-21T12:58:18;8.30;;;5.67;;
1262;SDS011;62267;50.112;8.704;2022-08-21T13:01:21;6.20;;;5.43;;
1262;SDS011;62267;50.112;8.704;2022-08-21T13:04:10;6.73;;;6.07;;
1262;SDS011;62267;50.112;8.704;2022-08-21T13:06:57;6.40;;;5.80;;
1262;SDS011;62267;50.112;8.704;2022-08-21T13:09:47;5.93;;;5.33;;
1262;SDS011;62267;50.112;8.704;2022-08-21T13:12:33;5.40;;;4.90;;
1262;SDS011;62267;50.112;8.704;2022-08-21T13:15:25;8.30;;;5.50;;
1262;SDS011;62267;50.112;8.704;2022-08-21T13:18:21;7.33;;;6.63;;
1262;SDS011;62267;50.112;8.704;2022-08-21T13:21:12;7.57;;;5.57;;
1262;SDS011;62267;50.112;8.704;2022-08-21T13:24:19;4.50;;;4.20;;
1262;SDS011;62267;50.112;8.704;2022-08-21T13:27:26;8.10;;;5.53;;
1262;SDS011;62267;50.112;8.704;2022-08-21T13:30:13;6.63;;;4.60;;
1262;SDS011;62267;50.112;8.704;2022-08-21T13:33:01;9.90;;;6.90;;
1262;SDS011;62267;50.112;8.704;2022-08-21T13:38:34;7.30;;;4.20;;
1262;SDS011;62267;50.112;8.704;2022-08-21T13:44:19;8.07;;;5.10;;
1262;SDS011;62267;50.112;8.704;2022-08-21T13:47:11;6.33;;;4.80;;
1262;SDS011;62267;50.112;8.704;2022-08-21T13:49:58;6.17;;;5.20;;
1262;SDS011;62267;50.112;8.704;2022-08-21T13:52:46;5.20;;;4.40;;
1262;SDS011;62267;50.112;8.704;2022-08-21T13:55:35;4.33;;;4.03;;
1262;SDS011;62267;50.112;8.704;2022-08-21T13:58:29;7.50;;;4.60;;
1262;SDS011;62267;50.112;8.704;2022-08-21T14:01:20;11.63;;;5.43;;
1262;SDS011;62267;50.112;8.704;2022-08-21T14:04:18;4.93;;;4.53;;
1262;SDS011;62267;50.112;8.704;2022-08-21T14:07:14;5.70;;;4.47;;
1262;SDS011;62267;50.112;8.704;2022-08-21T14:10:20;5.57;;;4.87;;
1262;SDS011;62267;50.112;8.704;2022-08-21T14:13:06;4.77;;;4.27;;
1262;SDS011;62267;50.112;8.704;2022-08-21T14:15:59;4.90;;;4.40;;
1262;SDS011;62267;50.112;8.704;2022-08-21T14:18:51;4.47;;;4.07;;
1262;SDS011;62267;50.112;8.704;2022-08-21T14:21:39;5.33;;;4.70;;
1262;SDS011;62267;50.112;8.704;2022-08-21T14:24:27;8.47;;;4.97;;
1262;SDS011;62267;50.112;8.704;2022-08-21T14:27:17;5.23;;;4.73;;
1262;SDS011;62267;50.112;8.704;2022-08-21T14:30:09;4.83;;;4.40;;
1262;SDS011;62267;50.112;8.704;2022-08-21T14:32:57;5.77;;;5.27;;
1262;SDS011;62267;50.112;8.704;2022-08-21T14:35:44;6.13;;;4.83;;
1262;SDS011;62267;50.112;8.704;2022-08-21T14:38:30;5.60;;;4.90;;
1262;SDS011;62267;50.112;8.704;2022-08-21T14:41:18;4.83;;;4.37;;
1262;SDS011;62267;50.112;8.704;2022-08-21T14:44:04;5.70;;;5.30;;
1262;SDS011;62267;50.112;8.704;2022-08-21T14:46:53;5.10;;;4.70;;
1262;SDS011;62267;50.112;8.704;2022-08-21T14:49:40;4.23;;;3.93;;
1262;SDS011;62267;50.112;8.704;2022-08-21T14:52:27;4.97;;;4.57;;
1262;SDS011;62267;50.112;8.704;2022-08-21T14:55:13;4.93;;;4.53;;
1262;SDS011;62267;50.112;8.704;2022-08-21T14:57:59;6.63;;;5.03;;
1262;SDS011;62267;50.112;8.704;2022-08-21T15:00:46;5.80;;;5.30;;
1262;SDS011;62267;50.112;8.704;2022-08-21T15:03:32;6.30;;;5.20;;
1262;SDS011;62267;50.112;8.704;2022-08-21T15:06:18;5.20;;;4.80;;
1262;SDS011;62267;50.112;8.704;2022-08-21T15:09:05;5.20;;;4.80;;
1262;SDS011;62267;50.112;8.704;2022-08-21T15:11:52;5.27;;;4.77;;
1262;SDS011;62267;50.112;8.704;2022-08-21T15:14:40;6.33;;;5.00;;
1262;SDS011;62267;50.112;8.704;2022-08-21T15:17:27;6.93;;;4.73;;
1262;SDS011;62267;50.112;8.704;2022-08-21T15:20:13;8.27;;;4.27;;
1262;SDS011;62267;50.112;8.704;2022-08-21T15:22:59;6.70;;;6.10;;
1262;SDS011;62267;50.112;8.704;2022-08-21T15:25:46;5.80;;;4.87;;
1262;SDS011;62267;50.112;8.704;2022-08-21T15:28:33;4.50;;;4.10;;
1262;SDS011;62267;50.112;8.704;2022-08-21T15:31:19;6.40;;;5.37;;
1262;SDS011;62267;50.112;8.704;2022-08-21T15:34:05;9.37;;;4.17;;
1262;SDS011;62267;50.112;8.704;2022-08-21T15:36:51;4.90;;;4.50;;
1262;SDS011;62267;50.112;8.704;2022-08-21T15:39:41;5.60;;;4.87;;
1262;SDS011;62267;50.112;8.704;2022-08-21T15:42:27;5.07;;;4.60;;
1262;SDS011;62267;50.112;8.704;2022-08-21T15:45:13;5.00;;;4.60;;
1262;SDS011;62267;50.112;8.704;2022-08-21T15:47:59;6.93;;;4.53;;
1262;SDS011;62267;50.112;8.704;2022-08-21T15:50:46;4.60;;;4.07;;
1262;SDS011;62267;50.112;8.704;2022-08-21T15:53:31;6.70;;;5.20;;
1262;SDS011;62267;50.112;8.704;2022-08-21T15:56:24;4.27;;;3.87;;
1262;SDS011;62267;50.112;8.704;2022-08-21T15:59:14;3.60;;;3.20;;
1262;SDS011;62267;50.112;8.704;2022-08-21T16:02:00;5.37;;;4.37;;
1262;SDS011;62267;50.112;8.704;2022-08-21T16:04:46;5.83;;;4.43;;
1262;SDS011;62267;50.112;8.704;2022-08-21T16:07:32;5.87;;;4.60;;
1262;SDS011;62267;50.112;8.704;2022-08-21T16:10:19;4.63;;;4.17;;
1262;SDS011;62267;50.112;8.704;2022-08-21T16:13:07;4.80;;;4.40;;
1262;SDS011;62267;50.112;8.704;2022-08-21T16:15:54;6.93;;;6.00;;
1262;SDS011;62267;50.112;8.704;2022-08-21T16:18:40;3.90;;;3.60;;
1262;SDS011;62267;50.112;8.704;2022-08-21T16:21:26;3.87;;;3.50;;
1262;SDS011;62267;50.112;8.704;2022-08-21T16:24:11;4.00;;;3.67;;
1262;SDS011;62267;50.112;8.704;2022-08-21T16:26:57;6.20;;;5.00;;
1262;SDS011;62267;50.112;8.704;2022-08-21T16:29:46;4.30;;;3.90;;
1262;SDS011;62267;50.112;8.704;2022-08-21T16:32:32;8.27;;;6.47;;
1262;SDS011;62267;50.112;8.704;2022-08-21T16:35:20;5.53;;;4.90;;
1262;SDS011;62267;50.112;8.704;2022-08-21T16:38:06;4.70;;;4.00;;
1262;SDS011;62267;50.112;8.704;2022-08-21T16:40:52;5.63;;;4.67;;
1262;SDS011;62267;50.112;8.704;2022-08-21T16:43:39;5.90;;;5.00;;
1262;SDS011;62267;50.112;8.704;2022-08-21T16:46:26;6.40;;;5.80;;
1262;SDS011;62267;50.112;8.704;2022-08-21T16:49:12;7.43;;;5.67;;
1262;SDS011;62267;50.112;8.704;2022-08-21T16:51:59;5.33;;;4.17;;
1262;SDS011;62267;50.112;8.704;2022-08-21T16:54:45;7.37;;;6.60;;
1262;SDS011;62267;50.112;8.704;2022-08-21T16:57:30;3.93;;;3.53;;
1262;SDS011;62267;50.112;8.704;2022-08-21T17:00:16;8.30;;;5.53;;
1262;SDS011;62267;50.112;8.704;2022-08-21T17:03:02;6.43;;;5.80;;
1262;SDS011;62267;50.112;8.704;2022-08-21T17:05:48;9.40;;;7.47;;
1262;SDS011;62267;50.112;8.704;2022-08-21T17:08:34;10.73;;;9.27;;
1262;SDS011;62267;50.112;8.704;2022-08-21T17:11:30;8.77;;;7.57;;
1262;SDS011;62267;50.112;8.704;2022-08-21T17:14:22;6.80;;;6.20;;
1262;SDS011;62267;50.112;8.704;2022-08-21T17:17:08;9.40;;;6.50;;
1262;SDS011;62267;50.112;8.704;2022-08-21T17:19:54;9.03;;;7.70;;
1262;SDS011;62267;50.112;8.704;2022-08-21T17:22:40;11.50;;;8.30;;
1262;SDS011;62267;50.112;8.704;2022-08-21T17:25:26;8.93;;;6.27;;
1262;SDS011;62267;50.112;8.704;2022-08-21T17:28:14;8.83;;;6.30;;
1262;SDS011;62267;50.112;8.704;2022-08-21T17:31:01;7.00;;;6.00;;
1262;SDS011;62267;50.112;8.704;2022-08-21T17:33:54;10.17;;;6.57;;
1262;SDS011;62267;50.112;8.704;2022-08-21T17:36:40;13.13;;;9.70;;
1262;SDS011;62267;50.112;8.704;2022-08-21T17:39:26;10.23;;;7.93;;
1262;SDS011;62267;50.112;8.704;2022-08-21T17:42:12;7.43;;;6.73;;
1262;SDS011;62267;50.112;8.704;2022-08-21T17:44:58;9.47;;;8.03;;
1262;SDS011;62267;50.112;8.704;2022-08-21T17:47:44;8.87;;;7.93;;
1262;SDS011;62267;50.112;8.704;2022-08-21T17:50:30;8.63;;;6.20;;
1262;SDS011;62267;50.112;8.704;2022-08-21T17:53:16;7.30;;;6.60;;
1262;SDS011;62267;50.112;8.704;2022-08-21T17:56:03;10.53;;;9.63;;
1262;SDS011;62267;50.112;8.704;2022-08-21T17:58:50;13.37;;;11.97;;
1262;SDS011;62267;50.112;8.704;2022-08-21T18:01:37;11.10;;;10.00;;
1262;SDS011;62267;50.112;8.704;2022-08-21T18:04:24;8.77;;;7.87;;
1262;SDS011;62267;50.112;8.704;2022-08-21T18:07:10;6.80;;;5.87;;
1262;SDS011;62267;50.112;8.704;2022-08-21T18:10:10;9.87;;;7.97;;
1262;SDS011;62267;50.112;8.704;2022-08-21T18:12:56;7.60;;;6.87;;
1262;SDS011;62267;50.112;8.704;2022-08-21T18:15:43;11.60;;;9.63;;